sensor_id;sensor_type;location;lat;lon;timestamp;P1;durP1;ratioP1;P2;durP2;ratioP2
485;SDS011;229;48.734;9.340;2022-12-24T00:00:55;5.78;;;3.22;;
485;SDS011;229;48.734;9.340;2022-12-24T00:03:23;5.53;;;2.60;;
485;SDS011;229;48.734;9.340;2022-12-24T00:05:50;9.85;;;2.90;;
485;SDS011;229;48.734;9.340;2022-12-24T00:08:17;3.05;;;2.60;;
485;SDS011;229;48.734;9.340;2022-12-24T00:10:47;4.50;;;2.58;;
485;SDS011;229;48.734;9.340;2022-12-24T00:13:14;4.03;;;2.58;;
485;SDS011;229;48.734;9.340;2022-12-24T00:15:43;9.52;;;3.38;;
485;SDS011;229;48.734;9.340;2022-12-24T00:18:10;4.38;;;2.90;;
485;SDS011;229;48.734;9.340;2022-12-24T00:20:37;8.27;;;2.85;;
485;SDS011;229;48.734;9.340;2022-12-24T00:23:04;7.38;;;3.10;;
485;SDS011;229;48.734;9.340;2022-12-24T00:25:32;7.05;;;3.08;;
485;SDS011;229;48.734;9.340;2022-12-24T00:27:59;3.85;;;2.75;;
485;SDS011;229;48.734;9.340;2022-12-24T00:30:26;4.80;;;3.03;;
485;SDS011;229;48.734;9.340;2022-12-24T00:32:55;4.68;;;2.63;;
485;SDS011;229;48.734;9.340;2022-12-24T00:35:22;9.27;;;3.00;;
485;SDS011;229;48.734;9.340;2022-12-24T00:37:49;4.90;;;2.70;;
485;SDS011;229;48.734;9.340;2022-12-24T00:40:17;5.35;;;2.60;;
485;SDS011;229;48.734;9.340;2022-12-24T00:42:44;5.25;;;2.53;;
485;SDS011;229;48.734;9.340;2022-12-24T00:45:11;5.28;;;3.08;;
485;SDS011;229;48.734;9.340;2022-12-24T00:47:39;4.30;;;2.45;;
485;SDS011;229;48.734;9.340;2022-12-24T00:50:08;6.75;;;2.53;;
485;SDS011;229;48.734;9.340;2022-12-24T00:52:35;4.60;;;2.58;;
485;SDS011;229;48.734;9.340;2022-12-24T00:55:03;4.30;;;2.30;;
485;SDS011;229;48.734;9.340;2022-12-24T00:57:30;5.82;;;2.70;;
485;SDS011;229;48.734;9.340;2022-12-24T00:59:57;5.80;;;2.42;;
485;SDS011;229;48.734;9.340;2022-12-24T01:02:24;12.25;;;2.65;;
485;SDS011;229;48.734;9.340;2022-12-24T01:04:52;5.47;;;2.30;;
485;SDS011;229;48.734;9.340;2022-12-24T01:07:38;9.43;;;2.35;;
485;SDS011;229;48.734;9.340;2022-12-24T01:10:06;7.68;;;2.08;;
485;SDS011;229;48.734;9.340;2022-12-24T01:12:34;8.50;;;2.40;;
485;SDS011;229;48.734;9.340;2022-12-24T01:15:01;3.70;;;2.20;;
485;SDS011;229;48.734;9.340;2022-12-24T01:17:29;10.10;;;2.70;;
485;SDS011;229;48.734;9.340;2022-12-24T01:19:57;4.40;;;2.47;;
485;SDS011;229;48.734;9.340;2022-12-24T01:22:24;5.82;;;2.60;;
485;SDS011;229;48.734;9.340;2022-12-24T01:24:53;5.18;;;2.40;;
485;SDS011;229;48.734;9.340;2022-12-24T01:27:20;3.40;;;2.17;;
485;SDS011;229;48.734;9.340;2022-12-24T01:29:47;3.97;;;2.20;;
485;SDS011;229;48.734;9.340;2022-12-24T01:32:14;6.22;;;1.98;;
485;SDS011;229;48.734;9.340;2022-12-24T01:34:41;8.93;;;2.25;;
485;SDS011;229;48.734;9.340;2022-12-24T01:37:09;3.75;;;2.30;;
485;SDS011;229;48.734;9.340;2022-12-24T01:39:36;4.90;;;2.50;;
485;SDS011;229;48.734;9.340;2022-12-24T01:42:11;6.25;;;2.35;;
485;SDS011;229;48.734;9.340;2022-12-24T01:47:40;6.75;;;3.15;;
485;SDS011;229;48.734;9.340;2022-12-24T01:50:12;7.50;;;2.30;;
485;SDS011;229;48.734;9.340;2022-12-24T01:52:41;6.13;;;3.05;;
485;SDS011;229;48.734;9.340;2022-12-24T01:55:09;6.68;;;2.30;;
485;SDS011;229;48.734;9.340;2022-12-24T01:57:38;7.85;;;2.30;;
485;SDS011;229;48.734;9.340;2022-12-24T02:00:08;8.40;;;2.70;;
485;SDS011;229;48.734;9.340;2022-12-24T02:02:36;8.02;;;2.75;;
485;SDS011;229;48.734;9.340;2022-12-24T02:05:05;6.72;;;3.20;;
485;SDS011;229;48.734;9.340;2022-12-24T02:07:34;11.82;;;3.00;;
485;SDS011;229;48.734;9.340;2022-12-24T02:10:02;6.30;;;2.55;;
485;SDS011;229;48.734;9.340;2022-12-24T02:12:30;6.57;;;2.60;;
485;SDS011;229;48.734;9.340;2022-12-24T02:14:59;12.52;;;3.10;;
485;SDS011;229;48.734;9.340;2022-12-24T02:17:28;12.15;;;2.95;;
485;SDS011;229;48.734;9.340;2022-12-24T02:20:08;8.15;;;2.72;;
485;SDS011;229;48.734;9.340;2022-12-24T02:22:45;8.55;;;2.30;;
485;SDS011;229;48.734;9.340;2022-12-24T02:25:19;10.20;;;3.08;;
485;SDS011;229;48.734;9.340;2022-12-24T02:27:53;5.05;;;2.60;;
485;SDS011;229;48.734;9.340;2022-12-24T02:30:23;14.95;;;3.45;;
485;SDS011;229;48.734;9.340;2022-12-24T02:32:57;11.73;;;3.03;;
485;SDS011;229;48.734;9.340;2022-12-24T02:35:29;5.97;;;2.45;;
485;SDS011;229;48.734;9.340;2022-12-24T02:37:59;10.20;;;3.30;;
485;SDS011;229;48.734;9.340;2022-12-24T02:40:30;9.38;;;3.28;;
485;SDS011;229;48.734;9.340;2022-12-24T02:43:00;9.20;;;3.05;;
485;SDS011;229;48.734;9.340;2022-12-24T02:45:29;5.35;;;2.75;;
485;SDS011;229;48.734;9.340;2022-12-24T02:47:57;8.50;;;3.17;;
485;SDS011;229;48.734;9.340;2022-12-24T02:50:24;8.82;;;3.00;;
485;SDS011;229;48.734;9.340;2022-12-24T02:52:52;9.70;;;3.78;;
485;SDS011;229;48.734;9.340;2022-12-24T02:55:20;9.30;;;3.20;;
485;SDS011;229;48.734;9.340;2022-12-24T02:57:53;13.75;;;3.60;;
485;SDS011;229;48.734;9.340;2022-12-24T03:00:22;12.05;;;3.15;;
485;SDS011;229;48.734;9.340;2022-12-24T03:02:55;12.25;;;3.08;;
485;SDS011;229;48.734;9.340;2022-12-24T03:05:33;10.80;;;3.15;;
485;SDS011;229;48.734;9.340;2022-12-24T03:08:05;9.57;;;2.88;;
485;SDS011;229;48.734;9.340;2022-12-24T03:10:35;9.35;;;3.00;;
485;SDS011;229;48.734;9.340;2022-12-24T03:13:05;9.30;;;3.45;;
485;SDS011;229;48.734;9.340;2022-12-24T03:15:35;14.65;;;3.22;;
485;SDS011;229;48.734;9.340;2022-12-24T03:18:04;6.82;;;2.80;;
485;SDS011;229;48.734;9.340;2022-12-24T03:20:34;9.20;;;3.28;;
485;SDS011;229;48.734;9.340;2022-12-24T03:23:02;6.68;;;2.88;;
485;SDS011;229;48.734;9.340;2022-12-24T03:25:30;10.85;;;2.97;;
485;SDS011;229;48.734;9.340;2022-12-24T03:27:58;5.82;;;2.60;;
485;SDS011;229;48.734;9.340;2022-12-24T03:30:26;10.20;;;3.13;;
485;SDS011;229;48.734;9.340;2022-12-24T03:32:54;6.13;;;3.15;;
485;SDS011;229;48.734;9.340;2022-12-24T03:35:22;8.82;;;3.13;;
485;SDS011;229;48.734;9.340;2022-12-24T03:37:50;7.00;;;3.60;;
485;SDS011;229;48.734;9.340;2022-12-24T03:40:17;9.43;;;4.03;;
485;SDS011;229;48.734;9.340;2022-12-24T03:42:44;10.98;;;3.35;;
485;SDS011;229;48.734;9.340;2022-12-24T03:45:12;13.18;;;3.45;;
485;SDS011;229;48.734;9.340;2022-12-24T03:47:39;6.53;;;2.83;;
485;SDS011;229;48.734;9.340;2022-12-24T03:50:06;9.48;;;2.85;;
485;SDS011;229;48.734;9.340;2022-12-24T03:52:35;12.27;;;2.92;;
485;SDS011;229;48.734;9.340;2022-12-24T03:55:02;10.57;;;2.97;;
485;SDS011;229;48.734;9.340;2022-12-24T03:57:30;13.27;;;3.40;;
485;SDS011;229;48.734;9.340;2022-12-24T03:59:57;11.25;;;3.10;;
485;SDS011;229;48.734;9.340;2022-12-24T04:02:24;7.07;;;2.65;;
485;SDS011;229;48.734;9.340;2022-12-24T04:04:51;17.88;;;3.20;;
485;SDS011;229;48.734;9.340;2022-12-24T04:07:18;9.10;;;3.28;;
485;SDS011;229;48.734;9.340;2022-12-24T04:09:47;13.27;;;3.58;;
485;SDS011;229;48.734;9.340;2022-12-24T04:12:14;8.18;;;3.13;;
485;SDS011;229;48.734;9.340;2022-12-24T04:14:41;9.00;;;3.00;;
485;SDS011;229;48.734;9.340;2022-12-24T04:17:08;15.75;;;4.13;;
485;SDS011;229;48.734;9.340;2022-12-24T04:19:36;6.32;;;3.63;;
485;SDS011;229;48.734;9.340;2022-12-24T04:22:03;12.40;;;3.90;;
485;SDS011;229;48.734;9.340;2022-12-24T04:24:30;13.32;;;3.50;;
485;SDS011;229;48.734;9.340;2022-12-24T04:26:58;8.52;;;3.03;;
485;SDS011;229;48.734;9.340;2022-12-24T04:29:25;13.23;;;3.45;;
485;SDS011;229;48.734;9.340;2022-12-24T04:31:53;9.13;;;2.75;;
485;SDS011;229;48.734;9.340;2022-12-24T04:34:20;10.57;;;2.85;;
485;SDS011;229;48.734;9.340;2022-12-24T04:36:47;16.88;;;3.20;;
485;SDS011;229;48.734;9.340;2022-12-24T04:39:14;8.02;;;3.47;;
485;SDS011;229;48.734;9.340;2022-12-24T04:41:41;6.93;;;2.53;;
485;SDS011;229;48.734;9.340;2022-12-24T04:44:10;10.05;;;3.83;;
485;SDS011;229;48.734;9.340;2022-12-24T04:46:37;11.65;;;3.40;;
485;SDS011;229;48.734;9.340;2022-12-24T04:49:05;11.18;;;3.38;;
485;SDS011;229;48.734;9.340;2022-12-24T04:51:32;11.02;;;3.65;;
485;SDS011;229;48.734;9.340;2022-12-24T04:53:59;8.27;;;3.13;;
485;SDS011;229;48.734;9.340;2022-12-24T04:56:27;9.75;;;5.15;;
485;SDS011;229;48.734;9.340;2022-12-24T04:58:55;7.30;;;3.45;;
485;SDS011;229;48.734;9.340;2022-12-24T05:01:24;14.05;;;3.60;;
485;SDS011;229;48.734;9.340;2022-12-24T05:03:52;18.05;;;3.85;;
485;SDS011;229;48.734;9.340;2022-12-24T05:06:20;7.90;;;3.60;;
485;SDS011;229;48.734;9.340;2022-12-24T05:08:48;12.27;;;3.50;;
485;SDS011;229;48.734;9.340;2022-12-24T05:11:15;13.13;;;2.75;;
485;SDS011;229;48.734;9.340;2022-12-24T05:13:42;8.07;;;2.80;;
485;SDS011;229;48.734;9.340;2022-12-24T05:16:10;15.88;;;4.25;;
485;SDS011;229;48.734;9.340;2022-12-24T05:18:39;8.55;;;3.33;;
485;SDS011;229;48.734;9.340;2022-12-24T05:21:07;13.27;;;3.42;;
485;SDS011;229;48.734;9.340;2022-12-24T05:23:34;11.50;;;3.40;;
485;SDS011;229;48.734;9.340;2022-12-24T05:26:22;11.95;;;3.72;;
485;SDS011;229;48.734;9.340;2022-12-24T05:28:52;7.57;;;3.17;;
485;SDS011;229;48.734;9.340;2022-12-24T05:31:20;13.15;;;3.72;;
485;SDS011;229;48.734;9.340;2022-12-24T05:33:49;8.48;;;3.40;;
485;SDS011;229;48.734;9.340;2022-12-24T05:36:18;11.95;;;3.92;;
485;SDS011;229;48.734;9.340;2022-12-24T05:38:45;8.68;;;2.85;;
485;SDS011;229;48.734;9.340;2022-12-24T05:41:12;6.55;;;2.80;;
485;SDS011;229;48.734;9.340;2022-12-24T05:43:39;8.18;;;2.92;;
485;SDS011;229;48.734;9.340;2022-12-24T05:46:12;9.85;;;3.15;;
485;SDS011;229;48.734;9.340;2022-12-24T05:48:39;5.78;;;3.10;;
485;SDS011;229;48.734;9.340;2022-12-24T05:51:09;9.05;;;3.80;;
485;SDS011;229;48.734;9.340;2022-12-24T05:53:36;10.63;;;3.58;;
485;SDS011;229;48.734;9.340;2022-12-24T05:56:04;15.27;;;3.38;;
485;SDS011;229;48.734;9.340;2022-12-24T05:58:32;7.47;;;3.30;;
485;SDS011;229;48.734;9.340;2022-12-24T06:00:59;11.88;;;3.80;;
485;SDS011;229;48.734;9.340;2022-12-24T06:03:27;4.82;;;3.10;;
485;SDS011;229;48.734;9.340;2022-12-24T06:05:58;10.73;;;3.45;;
485;SDS011;229;48.734;9.340;2022-12-24T06:08:27;11.32;;;3.20;;
485;SDS011;229;48.734;9.340;2022-12-24T06:10:55;4.93;;;2.70;;
485;SDS011;229;48.734;9.340;2022-12-24T06:13:22;9.63;;;3.95;;
485;SDS011;229;48.734;9.340;2022-12-24T06:15:50;12.15;;;3.65;;
485;SDS011;229;48.734;9.340;2022-12-24T06:18:17;11.82;;;3.50;;
485;SDS011;229;48.734;9.340;2022-12-24T06:20:44;13.20;;;3.53;;
485;SDS011;229;48.734;9.340;2022-12-24T06:23:11;10.30;;;3.00;;
485;SDS011;229;48.734;9.340;2022-12-24T06:25:40;6.32;;;3.20;;
485;SDS011;229;48.734;9.340;2022-12-24T06:28:07;8.73;;;3.10;;
485;SDS011;229;48.734;9.340;2022-12-24T06:30:34;9.32;;;3.20;;
485;SDS011;229;48.734;9.340;2022-12-24T06:33:01;10.35;;;3.10;;
485;SDS011;229;48.734;9.340;2022-12-24T06:35:29;10.65;;;3.75;;
485;SDS011;229;48.734;9.340;2022-12-24T06:37:57;7.63;;;2.80;;
485;SDS011;229;48.734;9.340;2022-12-24T06:40:24;9.40;;;3.60;;
485;SDS011;229;48.734;9.340;2022-12-24T06:42:52;5.88;;;2.75;;
485;SDS011;229;48.734;9.340;2022-12-24T06:45:20;23.88;;;4.45;;
485;SDS011;229;48.734;9.340;2022-12-24T06:47:47;11.40;;;3.17;;
485;SDS011;229;48.734;9.340;2022-12-24T06:50:14;10.73;;;3.58;;
485;SDS011;229;48.734;9.340;2022-12-24T06:52:41;7.63;;;3.13;;
485;SDS011;229;48.734;9.340;2022-12-24T06:55:08;13.85;;;3.83;;
485;SDS011;229;48.734;9.340;2022-12-24T06:57:36;19.08;;;3.83;;
485;SDS011;229;48.734;9.340;2022-12-24T07:00:05;7.20;;;2.72;;
485;SDS011;229;48.734;9.340;2022-12-24T07:02:33;9.05;;;2.85;;
485;SDS011;229;48.734;9.340;2022-12-24T07:05:00;5.47;;;3.03;;
485;SDS011;229;48.734;9.340;2022-12-24T07:07:27;9.50;;;3.10;;
485;SDS011;229;48.734;9.340;2022-12-24T07:09:54;9.18;;;3.55;;
485;SDS011;229;48.734;9.340;2022-12-24T07:12:22;8.20;;;3.17;;
485;SDS011;229;48.734;9.340;2022-12-24T07:14:49;7.43;;;3.83;;
485;SDS011;229;48.734;9.340;2022-12-24T07:17:17;8.13;;;3.50;;
485;SDS011;229;48.734;9.340;2022-12-24T07:19:44;10.35;;;4.00;;
485;SDS011;229;48.734;9.340;2022-12-24T07:22:12;6.68;;;3.30;;
485;SDS011;229;48.734;9.340;2022-12-24T07:24:39;9.23;;;3.83;;
485;SDS011;229;48.734;9.340;2022-12-24T07:27:06;8.07;;;4.10;;
485;SDS011;229;48.734;9.340;2022-12-24T07:29:33;14.02;;;4.40;;
485;SDS011;229;48.734;9.340;2022-12-24T07:32:01;8.43;;;3.80;;
485;SDS011;229;48.734;9.340;2022-12-24T07:34:29;9.40;;;3.67;;
485;SDS011;229;48.734;9.340;2022-12-24T07:36:56;10.27;;;3.50;;
485;SDS011;229;48.734;9.340;2022-12-24T07:39:24;10.75;;;3.38;;
485;SDS011;229;48.734;9.340;2022-12-24T07:41:51;7.95;;;3.60;;
485;SDS011;229;48.734;9.340;2022-12-24T07:44:18;8.75;;;3.60;;
485;SDS011;229;48.734;9.340;2022-12-24T07:46:45;10.82;;;3.92;;
485;SDS011;229;48.734;9.340;2022-12-24T07:49:12;9.40;;;3.40;;
485;SDS011;229;48.734;9.340;2022-12-24T07:51:41;10.98;;;3.80;;
485;SDS011;229;48.734;9.340;2022-12-24T07:54:08;7.50;;;3.55;;
485;SDS011;229;48.734;9.340;2022-12-24T07:56:35;10.23;;;3.67;;
485;SDS011;229;48.734;9.340;2022-12-24T07:59:02;13.05;;;3.70;;
485;SDS011;229;48.734;9.340;2022-12-24T08:01:29;13.48;;;4.80;;
485;SDS011;229;48.734;9.340;2022-12-24T08:03:57;7.80;;;3.55;;
485;SDS011;229;48.734;9.340;2022-12-24T08:06:24;9.43;;;3.55;;
485;SDS011;229;48.734;9.340;2022-12-24T08:08:52;7.70;;;3.67;;
485;SDS011;229;48.734;9.340;2022-12-24T08:11:20;9.20;;;3.72;;
485;SDS011;229;48.734;9.340;2022-12-24T08:13:47;9.70;;;4.30;;
485;SDS011;229;48.734;9.340;2022-12-24T08:16:14;12.77;;;4.32;;
485;SDS011;229;48.734;9.340;2022-12-24T08:18:41;9.45;;;3.65;;
485;SDS011;229;48.734;9.340;2022-12-24T08:21:08;10.02;;;4.22;;
485;SDS011;229;48.734;9.340;2022-12-24T08:23:36;13.10;;;4.13;;
485;SDS011;229;48.734;9.340;2022-12-24T08:26:06;9.27;;;3.80;;
485;SDS011;229;48.734;9.340;2022-12-24T08:28:34;8.50;;;4.22;;
485;SDS011;229;48.734;9.340;2022-12-24T08:31:01;8.52;;;3.63;;
485;SDS011;229;48.734;9.340;2022-12-24T08:33:29;6.85;;;3.28;;
485;SDS011;229;48.734;9.340;2022-12-24T08:35:57;8.45;;;3.92;;
485;SDS011;229;48.734;9.340;2022-12-24T08:38:24;9.57;;;4.03;;
485;SDS011;229;48.734;9.340;2022-12-24T08:40:51;10.05;;;4.20;;
485;SDS011;229;48.734;9.340;2022-12-24T08:43:20;9.50;;;3.67;;
485;SDS011;229;48.734;9.340;2022-12-24T08:45:49;6.47;;;3.60;;
485;SDS011;229;48.734;9.340;2022-12-24T08:48:16;9.90;;;3.70;;
485;SDS011;229;48.734;9.340;2022-12-24T08:50:44;11.70;;;4.63;;
485;SDS011;229;48.734;9.340;2022-12-24T08:53:11;8.30;;;3.83;;
485;SDS011;229;48.734;9.340;2022-12-24T08:55:38;9.90;;;3.80;;
485;SDS011;229;48.734;9.340;2022-12-24T08:58:06;9.13;;;3.53;;
485;SDS011;229;48.734;9.340;2022-12-24T09:00:34;10.18;;;4.63;;
485;SDS011;229;48.734;9.340;2022-12-24T09:03:02;11.85;;;4.30;;
485;SDS011;229;48.734;9.340;2022-12-24T09:05:29;11.07;;;3.30;;
485;SDS011;229;48.734;9.340;2022-12-24T09:07:56;13.48;;;3.97;;
485;SDS011;229;48.734;9.340;2022-12-24T09:10:23;9.70;;;3.78;;
485;SDS011;229;48.734;9.340;2022-12-24T09:12:50;11.10;;;3.90;;
485;SDS011;229;48.734;9.340;2022-12-24T09:15:18;9.05;;;3.65;;
485;SDS011;229;48.734;9.340;2022-12-24T09:17:46;11.68;;;4.05;;
485;SDS011;229;48.734;9.340;2022-12-24T09:20:13;6.53;;;3.63;;
485;SDS011;229;48.734;9.340;2022-12-24T09:22:40;10.40;;;3.85;;
485;SDS011;229;48.734;9.340;2022-12-24T09:25:08;16.60;;;5.15;;
485;SDS011;229;48.734;9.340;2022-12-24T09:27:35;13.30;;;4.68;;
485;SDS011;229;48.734;9.340;2022-12-24T09:30:03;16.00;;;3.50;;
485;SDS011;229;48.734;9.340;2022-12-24T09:32:30;15.70;;;4.30;;
485;SDS011;229;48.734;9.340;2022-12-24T09:34:59;14.30;;;4.22;;
485;SDS011;229;48.734;9.340;2022-12-24T09:37:26;13.38;;;4.20;;
485;SDS011;229;48.734;9.340;2022-12-24T09:39:53;21.58;;;4.90;;
485;SDS011;229;48.734;9.340;2022-12-24T09:42:23;11.00;;;3.83;;
485;SDS011;229;48.734;9.340;2022-12-24T09:44:53;11.85;;;3.92;;
485;SDS011;229;48.734;9.340;2022-12-24T09:47:24;11.98;;;4.07;;
485;SDS011;229;48.734;9.340;2022-12-24T09:49:52;16.30;;;5.57;;
485;SDS011;229;48.734;9.340;2022-12-24T09:52:26;13.00;;;5.32;;
485;SDS011;229;48.734;9.340;2022-12-24T09:54:56;14.40;;;5.68;;
485;SDS011;229;48.734;9.340;2022-12-24T09:57:24;14.07;;;4.25;;
485;SDS011;229;48.734;9.340;2022-12-24T09:59:54;14.35;;;4.47;;
485;SDS011;229;48.734;9.340;2022-12-24T10:02:21;14.52;;;4.85;;
485;SDS011;229;48.734;9.340;2022-12-24T10:04:48;11.13;;;4.85;;
485;SDS011;229;48.734;9.340;2022-12-24T10:07:20;12.23;;;4.97;;
485;SDS011;229;48.734;9.340;2022-12-24T10:09:54;9.07;;;4.80;;
485;SDS011;229;48.734;9.340;2022-12-24T10:12:25;8.25;;;4.18;;
485;SDS011;229;48.734;9.340;2022-12-24T10:14:58;8.68;;;4.80;;
485;SDS011;229;48.734;9.340;2022-12-24T10:17:38;8.52;;;3.78;;
485;SDS011;229;48.734;9.340;2022-12-24T10:20:13;13.38;;;4.20;;
485;SDS011;229;48.734;9.340;2022-12-24T10:22:49;12.35;;;4.85;;
485;SDS011;229;48.734;9.340;2022-12-24T10:25:21;12.85;;;4.10;;
485;SDS011;229;48.734;9.340;2022-12-24T10:27:49;13.57;;;4.05;;
485;SDS011;229;48.734;9.340;2022-12-24T10:30:19;12.25;;;4.70;;
485;SDS011;229;48.734;9.340;2022-12-24T10:32:48;14.32;;;5.03;;
485;SDS011;229;48.734;9.340;2022-12-24T10:35:18;12.73;;;5.03;;
485;SDS011;229;48.734;9.340;2022-12-24T10:37:46;15.25;;;5.28;;
485;SDS011;229;48.734;9.340;2022-12-24T10:40:15;12.18;;;5.15;;
485;SDS011;229;48.734;9.340;2022-12-24T10:42:46;15.07;;;5.07;;
485;SDS011;229;48.734;9.340;2022-12-24T10:45:13;12.98;;;4.53;;
485;SDS011;229;48.734;9.340;2022-12-24T10:47:42;13.68;;;4.55;;
485;SDS011;229;48.734;9.340;2022-12-24T10:50:12;10.82;;;4.00;;
485;SDS011;229;48.734;9.340;2022-12-24T10:52:41;11.30;;;4.60;;
485;SDS011;229;48.734;9.340;2022-12-24T10:55:10;16.52;;;4.95;;
485;SDS011;229;48.734;9.340;2022-12-24T10:57:38;45.70;;;5.95;;
485;SDS011;229;48.734;9.340;2022-12-24T11:00:17;11.75;;;3.95;;
485;SDS011;229;48.734;9.340;2022-12-24T11:02:45;15.48;;;4.13;;
485;SDS011;229;48.734;9.340;2022-12-24T11:05:26;15.80;;;4.68;;
485;SDS011;229;48.734;9.340;2022-12-24T11:07:58;15.15;;;6.88;;
485;SDS011;229;48.734;9.340;2022-12-24T11:10:25;15.65;;;5.20;;
485;SDS011;229;48.734;9.340;2022-12-24T11:12:53;12.80;;;5.22;;
485;SDS011;229;48.734;9.340;2022-12-24T11:15:23;15.50;;;4.20;;
485;SDS011;229;48.734;9.340;2022-12-24T11:17:52;16.42;;;4.95;;
485;SDS011;229;48.734;9.340;2022-12-24T11:20:21;14.65;;;4.60;;
485;SDS011;229;48.734;9.340;2022-12-24T11:22:50;8.90;;;4.75;;
485;SDS011;229;48.734;9.340;2022-12-24T11:25:18;10.40;;;4.50;;
485;SDS011;229;48.734;9.340;2022-12-24T11:27:46;9.60;;;3.70;;
485;SDS011;229;48.734;9.340;2022-12-24T11:30:24;13.63;;;4.60;;
485;SDS011;229;48.734;9.340;2022-12-24T11:35:39;10.57;;;4.40;;
485;SDS011;229;48.734;9.340;2022-12-24T11:38:08;17.88;;;5.90;;
485;SDS011;229;48.734;9.340;2022-12-24T11:40:38;10.23;;;3.63;;
485;SDS011;229;48.734;9.340;2022-12-24T11:43:06;7.90;;;3.97;;
485;SDS011;229;48.734;9.340;2022-12-24T11:45:44;12.10;;;3.88;;
485;SDS011;229;48.734;9.340;2022-12-24T11:48:22;19.17;;;5.35;;
485;SDS011;229;48.734;9.340;2022-12-24T11:50:54;18.48;;;4.68;;
485;SDS011;229;48.734;9.340;2022-12-24T11:53:22;12.43;;;3.90;;
485;SDS011;229;48.734;9.340;2022-12-24T11:55:52;16.67;;;5.32;;
485;SDS011;229;48.734;9.340;2022-12-24T11:58:21;13.93;;;4.13;;
485;SDS011;229;48.734;9.340;2022-12-24T12:00:54;9.40;;;4.10;;
485;SDS011;229;48.734;9.340;2022-12-24T12:03:26;9.70;;;3.88;;
485;SDS011;229;48.734;9.340;2022-12-24T12:05:55;17.40;;;4.68;;
485;SDS011;229;48.734;9.340;2022-12-24T12:08:24;14.65;;;5.00;;
485;SDS011;229;48.734;9.340;2022-12-24T12:10:54;11.85;;;4.90;;
485;SDS011;229;48.734;9.340;2022-12-24T12:13:23;13.63;;;4.20;;
485;SDS011;229;48.734;9.340;2022-12-24T12:16:00;10.25;;;3.60;;
485;SDS011;229;48.734;9.340;2022-12-24T12:18:31;13.98;;;4.50;;
485;SDS011;229;48.734;9.340;2022-12-24T12:21:01;12.38;;;4.30;;
485;SDS011;229;48.734;9.340;2022-12-24T12:23:30;13.90;;;4.85;;
485;SDS011;229;48.734;9.340;2022-12-24T12:25:59;14.32;;;4.85;;
485;SDS011;229;48.734;9.340;2022-12-24T12:28:28;15.10;;;4.20;;
485;SDS011;229;48.734;9.340;2022-12-24T12:31:00;12.43;;;4.03;;
485;SDS011;229;48.734;9.340;2022-12-24T12:33:30;13.63;;;4.40;;
485;SDS011;229;48.734;9.340;2022-12-24T12:35:59;16.60;;;4.50;;
485;SDS011;229;48.734;9.340;2022-12-24T12:38:27;12.93;;;4.30;;
485;SDS011;229;48.734;9.340;2022-12-24T12:41:04;15.65;;;3.72;;
485;SDS011;229;48.734;9.340;2022-12-24T12:43:42;14.15;;;3.88;;
485;SDS011;229;48.734;9.340;2022-12-24T12:46:17;15.23;;;4.22;;
485;SDS011;229;48.734;9.340;2022-12-24T12:48:49;14.00;;;3.30;;
485;SDS011;229;48.734;9.340;2022-12-24T12:51:21;10.85;;;4.15;;
485;SDS011;229;48.734;9.340;2022-12-24T12:54:03;12.98;;;4.15;;
485;SDS011;229;48.734;9.340;2022-12-24T12:56:32;11.38;;;3.83;;
485;SDS011;229;48.734;9.340;2022-12-24T12:59:01;7.53;;;3.95;;
485;SDS011;229;48.734;9.340;2022-12-24T13:01:35;16.83;;;3.75;;
485;SDS011;229;48.734;9.340;2022-12-24T13:04:12;14.80;;;4.97;;
485;SDS011;229;48.734;9.340;2022-12-24T13:07:05;10.85;;;4.43;;
485;SDS011;229;48.734;9.340;2022-12-24T13:09:41;11.43;;;4.13;;
485;SDS011;229;48.734;9.340;2022-12-24T13:15:13;9.60;;;3.97;;
485;SDS011;229;48.734;9.340;2022-12-24T13:18:00;11.68;;;3.50;;
485;SDS011;229;48.734;9.340;2022-12-24T13:20:31;11.93;;;4.40;;
485;SDS011;229;48.734;9.340;2022-12-24T13:23:01;8.63;;;4.20;;
485;SDS011;229;48.734;9.340;2022-12-24T13:25:32;13.48;;;3.90;;
485;SDS011;229;48.734;9.340;2022-12-24T13:28:13;11.68;;;4.22;;
485;SDS011;229;48.734;9.340;2022-12-24T13:30:41;16.13;;;4.57;;
485;SDS011;229;48.734;9.340;2022-12-24T13:33:10;13.45;;;4.40;;
485;SDS011;229;48.734;9.340;2022-12-24T13:35:57;9.25;;;3.95;;
485;SDS011;229;48.734;9.340;2022-12-24T13:38:38;15.10;;;4.97;;
485;SDS011;229;48.734;9.340;2022-12-24T13:46:45;21.67;;;4.93;;
485;SDS011;229;48.734;9.340;2022-12-24T13:49:16;13.70;;;4.78;;
485;SDS011;229;48.734;9.340;2022-12-24T13:51:43;9.82;;;3.97;;
485;SDS011;229;48.734;9.340;2022-12-24T13:54:11;14.85;;;4.88;;
485;SDS011;229;48.734;9.340;2022-12-24T13:56:39;14.68;;;5.40;;
485;SDS011;229;48.734;9.340;2022-12-24T13:59:09;9.15;;;4.50;;
485;SDS011;229;48.734;9.340;2022-12-24T14:01:38;13.90;;;5.00;;
485;SDS011;229;48.734;9.340;2022-12-24T14:04:06;16.65;;;5.55;;
485;SDS011;229;48.734;9.340;2022-12-24T14:06:36;12.70;;;4.47;;
485;SDS011;229;48.734;9.340;2022-12-24T14:09:06;10.43;;;5.15;;
485;SDS011;229;48.734;9.340;2022-12-24T14:14:26;16.95;;;4.95;;
485;SDS011;229;48.734;9.340;2022-12-24T14:17:07;20.40;;;6.72;;
485;SDS011;229;48.734;9.340;2022-12-24T14:19:41;22.92;;;8.02;;
485;SDS011;229;48.734;9.340;2022-12-24T14:25:18;22.52;;;10.98;;
485;SDS011;229;48.734;9.340;2022-12-24T14:27:54;21.05;;;9.98;;
485;SDS011;229;48.734;9.340;2022-12-24T14:30:36;16.00;;;8.50;;
485;SDS011;229;48.734;9.340;2022-12-24T14:33:29;16.65;;;8.57;;
485;SDS011;229;48.734;9.340;2022-12-24T14:36:17;24.63;;;9.75;;
485;SDS011;229;48.734;9.340;2022-12-24T19:27:34;16.40;;;8.03;;
485;SDS011;229;48.734;9.340;2022-12-24T19:30:02;22.65;;;10.98;;
485;SDS011;229;48.734;9.340;2022-12-24T19:32:29;19.63;;;11.60;;
485;SDS011;229;48.734;9.340;2022-12-24T19:34:56;23.67;;;9.90;;
485;SDS011;229;48.734;9.340;2022-12-24T19:37:24;15.43;;;6.63;;
485;SDS011;229;48.734;9.340;2022-12-24T19:39:51;13.70;;;6.47;;
485;SDS011;229;48.734;9.340;2022-12-24T19:42:18;17.00;;;7.10;;
485;SDS011;229;48.734;9.340;2022-12-24T19:44:47;27.58;;;13.85;;
485;SDS011;229;48.734;9.340;2022-12-24T19:47:14;41.63;;;14.30;;
485;SDS011;229;48.734;9.340;2022-12-24T19:49:46;13.57;;;7.78;;
485;SDS011;229;48.734;9.340;2022-12-24T19:52:13;20.30;;;8.82;;
485;SDS011;229;48.734;9.340;2022-12-24T19:54:40;19.13;;;8.18;;
485;SDS011;229;48.734;9.340;2022-12-24T19:57:08;17.40;;;8.63;;
485;SDS011;229;48.734;9.340;2022-12-24T19:59:36;15.88;;;8.20;;
485;SDS011;229;48.734;9.340;2022-12-24T20:02:05;12.88;;;6.90;;
485;SDS011;229;48.734;9.340;2022-12-24T20:04:32;14.02;;;5.63;;
485;SDS011;229;48.734;9.340;2022-12-24T20:06:59;10.48;;;5.55;;
485;SDS011;229;48.734;9.340;2022-12-24T20:09:26;15.00;;;7.40;;
485;SDS011;229;48.734;9.340;2022-12-24T20:11:56;11.15;;;5.95;;
485;SDS011;229;48.734;9.340;2022-12-24T20:14:23;23.63;;;10.18;;
485;SDS011;229;48.734;9.340;2022-12-24T20:16:51;14.30;;;7.00;;
485;SDS011;229;48.734;9.340;2022-12-24T20:19:19;14.73;;;7.68;;
485;SDS011;229;48.734;9.340;2022-12-24T20:21:47;12.10;;;5.70;;
485;SDS011;229;48.734;9.340;2022-12-24T20:24:14;18.65;;;7.93;;
485;SDS011;229;48.734;9.340;2022-12-24T20:26:41;20.83;;;7.10;;
485;SDS011;229;48.734;9.340;2022-12-24T20:29:09;13.90;;;6.63;;
485;SDS011;229;48.734;9.340;2022-12-24T20:31:36;12.75;;;5.80;;
485;SDS011;229;48.734;9.340;2022-12-24T20:34:04;10.25;;;5.25;;
485;SDS011;229;48.734;9.340;2022-12-24T20:36:33;13.80;;;6.53;;
485;SDS011;229;48.734;9.340;2022-12-24T20:39:01;12.27;;;6.15;;
485;SDS011;229;48.734;9.340;2022-12-24T20:41:29;13.23;;;6.07;;
485;SDS011;229;48.734;9.340;2022-12-24T20:43:57;11.10;;;6.60;;
485;SDS011;229;48.734;9.340;2022-12-24T20:46:24;11.00;;;5.97;;
485;SDS011;229;48.734;9.340;2022-12-24T20:48:52;20.75;;;6.85;;
485;SDS011;229;48.734;9.340;2022-12-24T20:51:19;14.35;;;7.45;;
485;SDS011;229;48.734;9.340;2022-12-24T20:53:48;17.85;;;7.45;;
485;SDS011;229;48.734;9.340;2022-12-24T20:56:16;13.00;;;7.65;;
485;SDS011;229;48.734;9.340;2022-12-24T20:58:43;12.20;;;6.78;;